Time;durP1;ratioP1;P1;durP2;ratioP2;P2;SDS_P1;SDS_P2;PMS_P1;PMS_P2;Temp;Humidity;BMP_temperature;BMP_pressure;BME280_temperature;BME280_humidity;BME280_pressure;Samples;Min_cycle;Max_cycle;Signal;HPM_P1;HPM_P2
2023/08/13 00:00:50;;;;;;;10.40;7.20;;;;;;;;;;5062223;28;20203;-65
2023/08/13 00:03:16;;;;;;;11.45;7.90;;;;;;;;;;5062081;28;20224;-65
2023/08/13 00:05:46;;;;;;;7.60;6.90;;;;;;;;;;5061850;28;20579;-65
2023/08/13 00:08:12;;;;;;;8.48;7.68;;;;;;;;;;5061992;28;20227;-65
2023/08/13 00:10:39;;;;;;;8.05;7.45;;;;;;;;;;5062321;28;20523;-65
2023/08/13 00:13:05;;;;;;;7.55;6.95;;;;;;;;;;5062059;28;20427;-65
2023/08/13 00:15:31;;;;;;;8.70;7.13;;;;;;;;;;5061764;28;20200;-65
2023/08/13 00:17:58;;;;;;;8.05;7.28;;;;;;;;;;5062126;28;20211;-65
2023/08/13 00:20:25;;;;;;;10.93;8.18;;;;;;;;;;5061868;28;20207;-65
2023/08/13 00:22:52;;;;;;;10.52;7.88;;;;;;;;;;5061722;28;20203;-65
2023/08/13 00:25:17;;;;;;;6.82;6.22;;;;;;;;;;5062155;28;20559;-65
2023/08/13 00:27:44;;;;;;;7.95;7.22;;;;;;;;;;5061948;28;20287;-65
2023/08/13 00:30:10;;;;;;;7.55;6.82;;;;;;;;;;5061808;28;20208;-65
2023/08/13 00:32:36;;;;;;;7.82;7.20;;;;;;;;;;5061761;28;20197;-65
2023/08/13 00:35:03;;;;;;;7.75;6.85;;;;;;;;;;5061645;28;20205;-65
2023/08/13 00:37:29;;;;;;;7.35;6.72;;;;;;;;;;5061428;28;20448;-65
2023/08/13 00:39:57;;;;;;;7.35;6.57;;;;;;;;;;5061861;28;20211;-65
2023/08/13 00:42:23;;;;;;;8.05;7.32;;;;;;;;;;5061643;28;20228;-65
2023/08/13 00:44:49;;;;;;;8.73;7.93;;;;;;;;;;5061502;28;20524;-65
2023/08/13 00:47:16;;;;;;;7.65;6.57;;;;;;;;;;5061468;28;20226;-65
2023/08/13 00:49:42;;;;;;;8.70;7.63;;;;;;;;;;5061647;28;20197;-65
2023/08/13 00:52:09;;;;;;;8.10;7.47;;;;;;;;;;5061393;28;20258;-64
2023/08/13 00:54:35;;;;;;;8.60;6.90;;;;;;;;;;5061480;28;20501;-64
2023/08/13 00:57:03;;;;;;;7.63;6.72;;;;;;;;;;5065561;28;20500;-65
2023/08/13 00:59:31;;;;;;;7.55;6.80;;;;;;;;;;5065620;28;20505;-65
2023/08/13 01:01:57;;;;;;;7.85;6.53;;;;;;;;;;5065670;28;20200;-65
2023/08/13 01:04:24;;;;;;;6.80;5.97;;;;;;;;;;5065848;28;20201;-65
2023/08/13 01:06:59;;;;;;;5.70;5.20;;;;;;;;;;5065456;28;20211;-65
2023/08/13 01:09:30;;;;;;;8.57;5.10;;;;;;;;;;5065938;28;20208;-65
2023/08/13 01:12:00;;;;;;;6.72;5.95;;;;;;;;;;5065522;28;20201;-65
2023/08/13 01:14:45;;;;;;;7.68;5.75;;;;;;;;;;5064825;28;20201;-65
2023/08/13 01:17:12;;;;;;;11.75;6.25;;;;;;;;;;5064793;28;20215;-65
2023/08/13 01:19:38;;;;;;;6.78;6.18;;;;;;;;;;5065456;28;20197;-65
2023/08/13 01:22:05;;;;;;;8.18;5.88;;;;;;;;;;5065106;28;20272;-65
2023/08/13 01:24:32;;;;;;;8.70;6.20;;;;;;;;;;5064899;28;20469;-65
2023/08/13 01:27:02;;;;;;;8.73;6.13;;;;;;;;;;5064962;28;20227;-65
2023/08/13 01:29:33;;;;;;;8.15;6.20;;;;;;;;;;5065026;28;20332;-65
2023/08/13 01:32:01;;;;;;;6.00;5.60;;;;;;;;;;5065021;28;20201;-64
2023/08/13 01:34:27;;;;;;;5.97;5.43;;;;;;;;;;5064979;28;20212;-65
2023/08/13 01:36:54;;;;;;;6.90;5.82;;;;;;;;;;5064789;28;20205;-65
2023/08/13 01:39:20;;;;;;;6.03;5.53;;;;;;;;;;5064744;28;20206;-65
2023/08/13 01:41:53;;;;;;;7.53;6.20;;;;;;;;;;5064882;28;20434;-65
2023/08/13 01:44:18;;;;;;;6.90;5.53;;;;;;;;;;5064967;28;20224;-65
2023/08/13 01:46:44;;;;;;;6.28;5.68;;;;;;;;;;5064532;28;20208;-65
2023/08/13 01:49:11;;;;;;;7.18;5.28;;;;;;;;;;5063543;28;20404;-65
2023/08/13 01:51:37;;;;;;;7.50;5.10;;;;;;;;;;5063502;28;20197;-65
2023/08/13 01:54:03;;;;;;;12.68;6.30;;;;;;;;;;5063479;28;20205;-65
2023/08/13 01:56:30;;;;;;;7.07;5.70;;;;;;;;;;5063126;28;20260;-65
2023/08/13 01:58:57;;;;;;;6.50;5.38;;;;;;;;;;5063510;28;20205;-64
2023/08/13 02:01:24;;;;;;;7.85;4.60;;;;;;;;;;5063351;28;20208;-64
2023/08/13 02:03:50;;;;;;;7.22;5.50;;;;;;;;;;5063417;28;20201;-64
2023/08/13 02:06:16;;;;;;;6.93;6.40;;;;;;;;;;5062488;28;20451;-65
2023/08/13 02:08:42;;;;;;;5.55;5.13;;;;;;;;;;5063241;28;20197;-65
2023/08/13 02:11:09;;;;;;;7.68;6.03;;;;;;;;;;5063168;28;20209;-65
2023/08/13 02:13:35;;;;;;;7.93;6.53;;;;;;;;;;5062962;28;20204;-65
2023/08/13 02:16:03;;;;;;;9.25;6.90;;;;;;;;;;5063068;28;20205;-64
2023/08/13 02:18:29;;;;;;;8.05;7.25;;;;;;;;;;5063019;28;20211;-64
2023/08/13 02:20:56;;;;;;;7.70;6.75;;;;;;;;;;5063057;28;20205;-64
2023/08/13 02:23:22;;;;;;;8.68;6.80;;;;;;;;;;5062966;28;20223;-64
2023/08/13 02:25:48;;;;;;;7.10;6.50;;;;;;;;;;5062589;28;20235;-65
2023/08/13 02:28:15;;;;;;;9.50;6.80;;;;;;;;;;5062989;28;20221;-65
2023/08/13 02:30:41;;;;;;;7.60;6.88;;;;;;;;;;5062796;28;20197;-65
2023/08/13 02:33:08;;;;;;;5.70;5.40;;;;;;;;;;5062850;28;20255;-65
2023/08/13 02:35:35;;;;;;;6.70;5.85;;;;;;;;;;5062480;28;20193;-65
2023/08/13 02:38:01;;;;;;;9.05;5.75;;;;;;;;;;5062822;28;20209;-65
2023/08/13 02:40:27;;;;;;;6.32;5.53;;;;;;;;;;5062468;28;20283;-65
2023/08/13 02:42:53;;;;;;;6.20;5.55;;;;;;;;;;5063036;28;20504;-65
2023/08/13 02:45:20;;;;;;;7.95;6.43;;;;;;;;;;5062424;28;20465;-65
2023/08/13 02:47:46;;;;;;;6.80;6.15;;;;;;;;;;5026847;28;1038479;-65
2023/08/13 02:50:14;;;;;;;6.40;5.78;;;;;;;;;;5063699;28;20208;-65
2023/08/13 02:52:40;;;;;;;7.15;6.50;;;;;;;;;;5055494;28;20197;-65
2023/08/13 02:55:07;;;;;;;8.07;6.88;;;;;;;;;;5063142;28;20205;-65
2023/08/13 02:57:33;;;;;;;5.30;4.80;;;;;;;;;;5063477;28;20201;-65
2023/08/13 02:59:59;;;;;;;6.65;5.22;;;;;;;;;;5063609;28;20201;-65
2023/08/13 03:02:26;;;;;;;6.95;4.93;;;;;;;;;;5063148;28;20207;-65
2023/08/13 03:04:52;;;;;;;9.63;4.68;;;;;;;;;;5063049;28;20329;-65
2023/08/13 03:07:19;;;;;;;7.97;4.72;;;;;;;;;;5063315;28;20205;-65
2023/08/13 03:09:46;;;;;;;5.35;4.95;;;;;;;;;;5063421;28;20216;-65
2023/08/13 03:12:12;;;;;;;10.20;5.30;;;;;;;;;;5063120;28;20201;-65
2023/08/13 03:14:39;;;;;;;8.00;5.22;;;;;;;;;;5063192;28;20197;-65
2023/08/13 03:17:05;;;;;;;6.00;5.43;;;;;;;;;;5062709;28;20535;-65
2023/08/13 03:19:31;;;;;;;6.20;5.53;;;;;;;;;;5062652;28;20401;-64
2023/08/13 03:21:57;;;;;;;9.18;5.45;;;;;;;;;;5063051;28;20201;-64
2023/08/13 03:24:25;;;;;;;5.72;5.00;;;;;;;;;;5063042;28;20278;-64
2023/08/13 03:26:51;;;;;;;9.98;5.78;;;;;;;;;;5062876;28;20538;-64
2023/08/13 03:29:17;;;;;;;6.43;5.80;;;;;;;;;;5062801;28;20201;-64
2023/08/13 03:31:44;;;;;;;5.80;5.40;;;;;;;;;;5062991;28;20196;-64
2023/08/13 03:34:10;;;;;;;6.07;5.63;;;;;;;;;;5062679;28;20200;-65
2023/08/13 03:36:36;;;;;;;8.57;6.70;;;;;;;;;;5062519;28;20200;-65
2023/08/13 03:39:03;;;;;;;7.97;6.63;;;;;;;;;;5063020;28;20205;-65
2023/08/13 03:41:30;;;;;;;9.98;6.88;;;;;;;;;;5062649;28;20217;-65
2023/08/13 03:43:57;;;;;;;13.30;8.73;;;;;;;;;;5062831;28;20204;-65
2023/08/13 03:46:23;;;;;;;13.77;9.50;;;;;;;;;;5062216;28;20284;-65
2023/08/13 03:48:49;;;;;;;11.20;10.13;;;;;;;;;;5062447;28;20201;-65
2023/08/13 03:51:15;;;;;;;13.50;10.07;;;;;;;;;;5062357;28;20205;-65
2023/08/13 03:53:42;;;;;;;9.88;8.95;;;;;;;;;;5054278;28;20197;-65
2023/08/13 03:56:08;;;;;;;14.57;10.38;;;;;;;;;;5062100;28;20203;-65
2023/08/13 03:58:37;;;;;;;11.10;9.90;;;;;;;;;;5062384;28;20208;-65
2023/08/13 04:01:04;;;;;;;11.05;9.98;;;;;;;;;;5062401;28;20438;-65
2023/08/13 04:03:30;;;;;;;11.05;9.93;;;;;;;;;;5062057;28;20224;-65
2023/08/13 04:05:57;;;;;;;10.63;9.48;;;;;;;;;;5062112;28;20225;-65
2023/08/13 04:08:23;;;;;;;13.77;10.80;;;;;;;;;;5061973;28;20201;-65
2023/08/13 04:10:50;;;;;;;12.02;9.40;;;;;;;;;;5062274;28;20200;-65
2023/08/13 04:13:16;;;;;;;11.77;9.32;;;;;;;;;;5062219;28;20201;-65
2023/08/13 04:15:44;;;;;;;13.90;10.25;;;;;;;;;;5061870;28;20523;-66
2023/08/13 04:18:10;;;;;;;14.73;10.70;;;;;;;;;;5062058;28;20377;-66
2023/08/13 04:20:39;;;;;;;15.10;12.30;;;;;;;;;;5061840;28;20209;-66
2023/08/13 04:23:06;;;;;;;19.77;13.80;;;;;;;;;;5062095;28;20203;-66
2023/08/13 04:25:32;;;;;;;12.95;11.35;;;;;;;;;;5061734;28;20227;-66
2023/08/13 04:27:58;;;;;;;13.02;11.73;;;;;;;;;;5061870;28;20562;-66
2023/08/13 04:30:25;;;;;;;14.00;12.45;;;;;;;;;;5061722;28;20204;-66
2023/08/13 04:32:54;;;;;;;17.42;13.45;;;;;;;;;;5061629;28;20193;-66
2023/08/13 04:35:20;;;;;;;18.27;13.57;;;;;;;;;;5061733;28;20392;-66
2023/08/13 04:37:47;;;;;;;17.15;14.05;;;;;;;;;;5062078;28;20203;-66
2023/08/13 04:40:13;;;;;;;18.67;14.05;;;;;;;;;;5062116;28;20564;-66
2023/08/13 04:42:41;;;;;;;15.18;13.57;;;;;;;;;;5061616;28;20205;-66
2023/08/13 04:45:07;;;;;;;17.23;13.63;;;;;;;;;;5061511;28;20449;-66
2023/08/13 04:47:34;;;;;;;16.40;14.73;;;;;;;;;;5061336;28;20228;-66
2023/08/13 04:50:01;;;;;;;16.08;13.88;;;;;;;;;;5061731;28;20201;-66
2023/08/13 04:52:27;;;;;;;14.55;13.05;;;;;;;;;;5061570;28;20205;-66
2023/08/13 04:54:54;;;;;;;15.90;14.10;;;;;;;;;;5061586;28;20201;-66
2023/08/13 04:57:21;;;;;;;17.10;14.35;;;;;;;;;;5061605;28;20258;-66
2023/08/13 04:59:47;;;;;;;14.77;13.07;;;;;;;;;;5061429;28;20216;-66
2023/08/13 05:02:13;;;;;;;15.80;12.55;;;;;;;;;;5061685;28;20391;-66
2023/08/13 05:04:39;;;;;;;17.25;14.23;;;;;;;;;;5061547;28;20208;-66
2023/08/13 05:07:07;;;;;;;16.50;14.57;;;;;;;;;;5061436;28;20221;-66
2023/08/13 05:09:34;;;;;;;15.93;14.25;;;;;;;;;;5061471;28;20200;-66
2023/08/13 05:12:00;;;;;;;14.77;13.38;;;;;;;;;;5061499;28;20262;-66
2023/08/13 05:14:26;;;;;;;11.30;10.30;;;;;;;;;;5061243;28;20216;-66
2023/08/13 05:16:54;;;;;;;12.43;11.15;;;;;;;;;;5061551;28;20361;-66
2023/08/13 05:19:21;;;;;;;13.02;11.63;;;;;;;;;;5061650;28;20208;-66
2023/08/13 05:21:47;;;;;;;11.95;10.90;;;;;;;;;;5061401;28;20203;-66
2023/08/13 05:24:14;;;;;;;13.90;11.63;;;;;;;;;;5061348;28;20419;-66
2023/08/13 05:26:41;;;;;;;11.70;10.50;;;;;;;;;;5060916;28;20221;-66
2023/08/13 05:29:07;;;;;;;10.75;9.65;;;;;;;;;;5061182;28;20243;-66
2023/08/13 05:31:33;;;;;;;10.93;9.93;;;;;;;;;;5061030;28;20445;-66
2023/08/13 05:34:00;;;;;;;10.70;9.38;;;;;;;;;;5061256;28;20264;-66
2023/08/13 05:36:26;;;;;;;10.25;9.02;;;;;;;;;;5060973;28;20205;-66
2023/08/13 05:38:52;;;;;;;8.45;7.82;;;;;;;;;;5061324;28;20268;-66
2023/08/13 05:41:20;;;;;;;8.38;7.70;;;;;;;;;;5062390;28;20272;-66
2023/08/13 05:43:46;;;;;;;7.03;6.50;;;;;;;;;;5064695;28;20197;-66
2023/08/13 05:46:13;;;;;;;7.30;6.53;;;;;;;;;;5064785;28;20397;-66
2023/08/13 05:48:39;;;;;;;7.68;6.40;;;;;;;;;;5064658;28;20205;-66
2023/08/13 05:51:05;;;;;;;6.65;6.13;;;;;;;;;;5064896;28;20208;-66
2023/08/13 05:53:31;;;;;;;7.72;7.22;;;;;;;;;;5064781;28;20205;-66
2023/08/13 05:55:59;;;;;;;8.88;8.18;;;;;;;;;;5064602;28;20222;-66
2023/08/13 05:58:27;;;;;;;10.07;7.55;;;;;;;;;;5064985;28;20207;-66
2023/08/13 06:00:53;;;;;;;10.45;9.38;;;;;;;;;;5064792;28;20419;-66
2023/08/13 06:03:20;;;;;;;9.85;9.05;;;;;;;;;;5064723;28;20201;-66
2023/08/13 06:05:47;;;;;;;10.52;9.43;;;;;;;;;;5064372;28;20204;-66
2023/08/13 06:08:13;;;;;;;11.13;9.93;;;;;;;;;;5064424;28;20223;-66
2023/08/13 06:10:39;;;;;;;8.63;7.93;;;;;;;;;;5064197;28;20197;-66
2023/08/13 06:13:06;;;;;;;8.52;7.72;;;;;;;;;;5064365;28;20520;-67
2023/08/13 06:15:33;;;;;;;7.50;6.65;;;;;;;;;;5064450;28;20381;-66
2023/08/13 06:18:00;;;;;;;7.82;7.13;;;;;;;;;;5064376;28;20201;-66
2023/08/13 06:20:26;;;;;;;8.38;7.10;;;;;;;;;;5064257;28;20216;-66
2023/08/13 06:22:52;;;;;;;6.97;6.53;;;;;;;;;;5064335;28;20201;-66
2023/08/13 06:25:19;;;;;;;7.57;6.38;;;;;;;;;;5064106;28;20201;-66
2023/08/13 06:27:45;;;;;;;7.63;6.78;;;;;;;;;;5064512;28;20275;-66
2023/08/13 06:30:11;;;;;;;6.82;5.35;;;;;;;;;;5064886;28;20207;-66
2023/08/13 06:32:39;;;;;;;5.70;5.25;;;;;;;;;;5064432;28;20236;-66
2023/08/13 06:35:05;;;;;;;5.70;5.07;;;;;;;;;;5064179;28;20207;-66
2023/08/13 06:37:32;;;;;;;6.40;4.63;;;;;;;;;;5063898;28;20203;-66
2023/08/13 06:39:58;;;;;;;5.05;4.68;;;;;;;;;;5063906;28;20268;-66
2023/08/13 06:42:24;;;;;;;5.22;4.90;;;;;;;;;;5063851;28;20201;-66
2023/08/13 06:44:51;;;;;;;8.15;4.78;;;;;;;;;;5063724;28;20212;-66
2023/08/13 06:47:17;;;;;;;6.05;4.88;;;;;;;;;;5063714;28;20217;-66
2023/08/13 06:49:44;;;;;;;5.35;4.70;;;;;;;;;;5063709;28;20287;-67
2023/08/13 06:52:11;;;;;;;5.80;5.30;;;;;;;;;;5063425;28;20212;-66
2023/08/13 06:54:37;;;;;;;5.22;4.80;;;;;;;;;;5063056;28;20208;-66
2023/08/13 06:57:04;;;;;;;5.68;5.15;;;;;;;;;;5063554;28;20196;-66
2023/08/13 06:59:30;;;;;;;5.95;5.35;;;;;;;;;;5063339;28;20208;-66
2023/08/13 07:01:56;;;;;;;6.15;5.07;;;;;;;;;;5063600;28;20433;-66
2023/08/13 07:04:22;;;;;;;4.80;4.50;;;;;;;;;;5063747;28;20208;-66
2023/08/13 07:06:50;;;;;;;4.95;4.57;;;;;;;;;;5063020;28;20227;-66
2023/08/13 07:09:16;;;;;;;4.80;4.10;;;;;;;;;;5063186;28;20205;-66
2023/08/13 07:11:42;;;;;;;4.55;4.35;;;;;;;;;;5063369;28;20200;-66
2023/08/13 07:14:09;;;;;;;4.05;3.85;;;;;;;;;;5063449;28;20416;-66
2023/08/13 07:16:35;;;;;;;4.45;4.22;;;;;;;;;;5063134;28;20197;-66
2023/08/13 07:19:02;;;;;;;5.78;4.25;;;;;;;;;;5063379;28;20208;-66
2023/08/13 07:21:28;;;;;;;4.45;4.15;;;;;;;;;;5063738;28;20207;-66
2023/08/13 07:23:56;;;;;;;3.83;3.53;;;;;;;;;;5054965;28;20197;-66
2023/08/13 07:26:22;;;;;;;4.68;4.07;;;;;;;;;;5062997;28;20500;-66
2023/08/13 07:28:48;;;;;;;4.97;4.50;;;;;;;;;;5062939;28;20228;-66
2023/08/13 07:31:15;;;;;;;4.88;4.47;;;;;;;;;;5062929;28;20268;-66
2023/08/13 07:33:41;;;;;;;4.45;4.15;;;;;;;;;;5063017;28;20254;-66
2023/08/13 07:36:07;;;;;;;4.68;4.28;;;;;;;;;;5062855;28;20500;-66
2023/08/13 07:38:34;;;;;;;6.00;4.25;;;;;;;;;;5063021;28;20399;-66
2023/08/13 07:41:03;;;;;;;4.50;4.20;;;;;;;;;;5063014;28;20223;-67
2023/08/13 07:43:29;;;;;;;4.45;4.15;;;;;;;;;;5062755;28;20442;-67
2023/08/13 07:45:55;;;;;;;5.82;4.82;;;;;;;;;;5054522;28;20207;-67
2023/08/13 07:48:21;;;;;;;4.95;4.50;;;;;;;;;;5062566;28;20217;-67
2023/08/13 07:50:50;;;;;;;4.85;4.40;;;;;;;;;;5062529;28;20201;-67
2023/08/13 07:53:16;;;;;;;5.00;4.57;;;;;;;;;;5062789;28;20562;-66
2023/08/13 07:55:43;;;;;;;4.65;4.32;;;;;;;;;;5062761;28;20225;-67
2023/08/13 07:58:10;;;;;;;4.68;3.60;;;;;;;;;;5062740;28;20197;-67
2023/08/13 08:00:37;;;;;;;4.57;4.22;;;;;;;;;;5062386;28;20212;-67
2023/08/13 08:03:03;;;;;;;4.32;4.13;;;;;;;;;;5062522;28;20201;-67
2023/08/13 08:05:30;;;;;;;4.25;3.95;;;;;;;;;;5061741;28;20404;-67
2023/08/13 08:07:56;;;;;;;6.20;4.80;;;;;;;;;;5054213;28;20225;-67
2023/08/13 08:10:23;;;;;;;5.15;4.70;;;;;;;;;;5062383;28;20203;-67
2023/08/13 08:12:49;;;;;;;4.90;4.47;;;;;;;;;;5062295;28;20400;-67
2023/08/13 08:15:17;;;;;;;4.63;4.22;;;;;;;;;;5062208;28;20193;-67
2023/08/13 08:17:43;;;;;;;4.60;4.22;;;;;;;;;;5062036;28;20201;-67
2023/08/13 08:20:10;;;;;;;4.10;3.80;;;;;;;;;;5062293;28;20203;-67
2023/08/13 08:22:36;;;;;;;4.10;3.90;;;;;;;;;;5062153;28;20204;-67
2023/08/13 08:25:06;;;;;;;4.78;4.35;;;;;;;;;;5061930;28;20204;-67
2023/08/13 08:27:33;;;;;;;4.93;4.45;;;;;;;;;;5062061;28;20416;-67
2023/08/13 08:29:59;;;;;;;5.47;3.72;;;;;;;;;;5062234;28;20204;-67
2023/08/13 08:32:27;;;;;;;4.47;4.07;;;;;;;;;;5062283;28;20196;-67
2023/08/13 08:34:53;;;;;;;4.38;4.07;;;;;;;;;;5062007;28;20208;-67
2023/08/13 08:37:19;;;;;;;3.55;3.45;;;;;;;;;;5062022;28;20193;-67
2023/08/13 08:39:45;;;;;;;4.07;3.88;;;;;;;;;;5062119;28;20493;-67
2023/08/13 08:42:12;;;;;;;4.30;3.90;;;;;;;;;;5062222;28;20383;-67
2023/08/13 08:44:39;;;;;;;4.25;3.85;;;;;;;;;;5062033;28;20220;-67
2023/08/13 08:47:07;;;;;;;3.88;3.55;;;;;;;;;;5061665;28;20541;-67
2023/08/13 08:49:35;;;;;;;4.35;4.05;;;;;;;;;;5062223;28;20220;-67
2023/08/13 08:52:01;;;;;;;7.03;4.13;;;;;;;;;;5054232;28;20352;-67
2023/08/13 08:54:28;;;;;;;3.63;3.42;;;;;;;;;;5061932;28;20196;-67
2023/08/13 08:56:54;;;;;;;3.97;3.78;;;;;;;;;;5061657;28;20209;-67
2023/08/13 08:59:20;;;;;;;3.88;3.58;;;;;;;;;;5061794;28;20203;-67
2023/08/13 09:01:47;;;;;;;3.70;3.50;;;;;;;;;;5061842;28;20385;-67
2023/08/13 09:04:13;;;;;;;4.43;4.03;;;;;;;;;;5062086;28;20203;-67
2023/08/13 09:07:04;;;;;;;3.67;3.50;;;;;;;;;;5061709;28;20512;-67
2023/08/13 09:09:31;;;;;;;3.83;3.50;;;;;;;;;;5051331;28;20197;-67
2023/08/13 09:11:58;;;;;;;3.80;3.50;;;;;;;;;;5061512;28;20196;-67
2023/08/13 09:14:25;;;;;;;3.40;3.20;;;;;;;;;;5061954;28;20392;-59
2023/08/13 09:16:51;;;;;;;3.65;2.80;;;;;;;;;;5063614;28;20204;-59
2023/08/13 09:19:18;;;;;;;3.38;3.10;;;;;;;;;;5065581;28;20197;-59
2023/08/13 09:21:49;;;;;;;4.70;3.08;;;;;;;;;;5065414;28;20199;-59
2023/08/13 09:24:15;;;;;;;3.03;2.83;;;;;;;;;;5065434;28;20396;-59
2023/08/13 09:26:43;;;;;;;4.10;3.08;;;;;;;;;;5064874;28;20409;-59
2023/08/13 09:29:09;;;;;;;3.90;2.60;;;;;;;;;;5065324;28;20213;-59
2023/08/13 09:31:36;;;;;;;3.15;2.95;;;;;;;;;;5065460;28;20195;-58
2023/08/13 09:34:03;;;;;;;3.20;2.90;;;;;;;;;;5057178;28;20203;-59
2023/08/13 09:36:29;;;;;;;4.72;2.88;;;;;;;;;;5065154;28;20196;-59
2023/08/13 09:38:56;;;;;;;3.50;3.30;;;;;;;;;;5064968;28;20271;-59
2023/08/13 09:41:23;;;;;;;3.10;2.90;;;;;;;;;;5065050;28;20202;-59
2023/08/13 09:43:53;;;;;;;3.83;3.13;;;;;;;;;;5065081;28;20235;-58
2023/08/13 09:46:21;;;;;;;3.10;3.00;;;;;;;;;;5065021;28;20388;-59
2023/08/13 09:48:47;;;;;;;3.92;2.92;;;;;;;;;;5064678;28;20224;-59
2023/08/13 09:51:14;;;;;;;4.30;2.83;;;;;;;;;;5065053;28;20197;-59
2023/08/13 09:53:43;;;;;;;2.97;2.80;;;;;;;;;;5063988;28;20386;-59
2023/08/13 09:56:10;;;;;;;3.70;3.40;;;;;;;;;;5062769;28;20200;-59
2023/08/13 09:58:37;;;;;;;4.03;3.13;;;;;;;;;;5062798;28;20580;-59
2023/08/13 10:01:05;;;;;;;3.67;3.00;;;;;;;;;;5061320;28;20535;-59
2023/08/13 10:03:32;;;;;;;3.10;2.90;;;;;;;;;;5063264;28;20205;-59
2023/08/13 10:05:58;;;;;;;3.45;3.15;;;;;;;;;;5064301;28;20408;-59
2023/08/13 10:08:25;;;;;;;2.97;2.70;;;;;;;;;;5064427;28;20452;-59
2023/08/13 10:10:51;;;;;;;3.03;2.83;;;;;;;;;;5064377;28;20200;-59
2023/08/13 10:13:18;;;;;;;3.13;3.03;;;;;;;;;;5064417;28;20438;-59
2023/08/13 10:15:45;;;;;;;6.22;2.90;;;;;;;;;;5064202;28;20219;-59
2023/08/13 10:18:13;;;;;;;3.00;2.65;;;;;;;;;;5058876;28;20405;-59
2023/08/13 10:20:43;;;;;;;3.00;2.75;;;;;;;;;;5058775;28;20546;-59
2023/08/13 10:23:11;;;;;;;3.35;2.90;;;;;;;;;;5059075;28;20217;-59
2023/08/13 10:25:38;;;;;;;4.13;2.47;;;;;;;;;;5058766;28;20588;-59
2023/08/13 10:28:19;;;;;;;3.20;2.58;;;;;;;;;;5050393;28;20235;-59
2023/08/13 10:30:46;;;;;;;2.65;2.53;;;;;;;;;;5058827;28;20215;-59
2023/08/13 10:33:14;;;;;;;3.10;2.90;;;;;;;;;;5059009;28;20209;-59
2023/08/13 10:35:42;;;;;;;2.65;2.53;;;;;;;;;;5058653;28;20201;-57
2023/08/13 10:38:09;;;;;;;3.08;2.35;;;;;;;;;;5058858;28;20397;-59
2023/08/13 10:40:35;;;;;;;2.83;2.30;;;;;;;;;;5058803;28;20513;-59
2023/08/13 10:43:02;;;;;;;2.83;2.03;;;;;;;;;;5058645;28;20209;-59
2023/08/13 10:45:32;;;;;;;4.00;2.10;;;;;;;;;;5058578;28;20209;-59
2023/08/13 10:48:00;;;;;;;2.40;2.20;;;;;;;;;;5047227;28;20236;-59
2023/08/13 10:50:29;;;;;;;2.92;2.70;;;;;;;;;;5058743;28;20238;-59
2023/08/13 10:53:01;;;;;;;2.63;2.42;;;;;;;;;;5058331;28;20217;-59
2023/08/13 10:55:28;;;;;;;2.17;2.08;;;;;;;;;;5058515;28;20565;-59
2023/08/13 10:57:55;;;;;;;4.03;2.10;;;;;;;;;;5058615;28;20209;-59
2023/08/13 11:00:22;;;;;;;2.90;2.58;;;;;;;;;;5058512;28;20216;-59
2023/08/13 11:02:50;;;;;;;3.60;2.28;;;;;;;;;;5058368;28;20215;-59
2023/08/13 11:05:17;;;;;;;2.53;2.42;;;;;;;;;;5058264;28;20208;-59
2023/08/13 11:07:44;;;;;;;2.63;2.40;;;;;;;;;;5058551;28;20228;-59
2023/08/13 11:10:15;;;;;;;3.17;2.50;;;;;;;;;;5058604;28;20208;-59
2023/08/13 11:12:42;;;;;;;3.30;2.45;;;;;;;;;;5058446;28;20208;-58
2023/08/13 11:15:08;;;;;;;2.47;2.38;;;;;;;;;;5056750;28;20209;-58
2023/08/13 11:17:34;;;;;;;2.70;2.60;;;;;;;;;;5056812;28;20269;-59
2023/08/13 11:20:05;;;;;;;2.70;2.53;;;;;;;;;;5056637;28;20219;-59
2023/08/13 11:22:31;;;;;;;3.05;2.30;;;;;;;;;;5056705;28;20259;-59
2023/08/13 11:24:59;;;;;;;2.97;2.47;;;;;;;;;;5056445;28;20221;-58
2023/08/13 11:27:27;;;;;;;2.35;2.20;;;;;;;;;;5056249;28;20551;-58
2023/08/13 11:29:54;;;;;;;3.28;2.65;;;;;;;;;;5056572;28;20228;-59
2023/08/13 11:32:20;;;;;;;3.38;2.40;;;;;;;;;;5056687;28;20216;-58
2023/08/13 11:34:46;;;;;;;4.32;2.55;;;;;;;;;;5055286;28;20228;-58
2023/08/13 11:37:13;;;;;;;2.60;2.40;;;;;;;;;;5056376;28;20213;-58
2023/08/13 11:39:39;;;;;;;3.08;2.83;;;;;;;;;;5055985;28;20528;-58
2023/08/13 11:42:10;;;;;;;2.83;2.63;;;;;;;;;;5056703;28;20231;-58
2023/08/13 11:44:37;;;;;;;3.90;2.65;;;;;;;;;;5056854;28;20413;-58
2023/08/13 11:47:04;;;;;;;2.70;2.50;;;;;;;;;;5056179;28;20547;-57
2023/08/13 11:49:30;;;;;;;2.67;2.45;;;;;;;;;;5056553;28;20231;-58
2023/08/13 11:51:57;;;;;;;2.60;2.40;;;;;;;;;;5056593;28;20213;-59
2023/08/13 11:54:23;;;;;;;3.60;2.15;;;;;;;;;;5057559;28;20231;-59
2023/08/13 11:56:51;;;;;;;2.53;2.33;;;;;;;;;;5053617;28;20209;-59
2023/08/13 11:59:24;;;;;;;2.88;2.65;;;;;;;;;;5053012;28;20439;-67
2023/08/13 12:01:51;;;;;;;2.80;2.58;;;;;;;;;;5054104;28;20500;-67
2023/08/13 12:04:17;;;;;;;4.72;2.60;;;;;;;;;;5054187;28;20209;-67
2023/08/13 12:06:45;;;;;;;2.72;2.58;;;;;;;;;;5049214;28;20216;-67
2023/08/13 12:09:13;;;;;;;2.78;2.58;;;;;;;;;;5049089;28;20220;-67
2023/08/13 12:11:39;;;;;;;2.42;2.33;;;;;;;;;;5051685;28;20513;-67
2023/08/13 12:14:06;;;;;;;2.83;2.72;;;;;;;;;;5056991;28;20209;-67
2023/08/13 12:16:34;;;;;;;3.58;2.45;;;;;;;;;;5057144;28;20209;-67
2023/08/13 12:19:01;;;;;;;4.00;2.53;;;;;;;;;;5057581;28;20535;-67
2023/08/13 12:21:27;;;;;;;2.75;2.30;;;;;;;;;;5057586;28;20551;-67
2023/08/13 12:23:54;;;;;;;5.72;2.90;;;;;;;;;;5056645;28;20215;-67
2023/08/13 12:26:21;;;;;;;2.88;2.50;;;;;;;;;;5056834;28;20208;-67
2023/08/13 12:28:50;;;;;;;3.33;2.85;;;;;;;;;;5056588;28;20242;-67
2023/08/13 12:31:16;;;;;;;3.40;2.50;;;;;;;;;;5057059;28;20306;-67
2023/08/13 12:33:44;;;;;;;4.22;2.85;;;;;;;;;;5056788;28;20212;-67
2023/08/13 12:36:10;;;;;;;2.67;2.50;;;;;;;;;;5056492;28;20208;-67
2023/08/13 12:38:39;;;;;;;3.30;2.53;;;;;;;;;;5056908;28;20492;-67
2023/08/13 12:41:05;;;;;;;4.50;2.42;;;;;;;;;;5056592;28;20603;-67
2023/08/13 12:43:31;;;;;;;3.22;2.47;;;;;;;;;;5057026;28;20212;-66
2023/08/13 12:45:58;;;;;;;2.55;2.35;;;;;;;;;;5056675;28;20524;-66
2023/08/13 12:48:24;;;;;;;2.33;2.13;;;;;;;;;;5056713;28;20322;-66
2023/08/13 12:50:52;;;;;;;3.13;2.80;;;;;;;;;;5059667;28;20226;-67
2023/08/13 12:53:18;;;;;;;3.42;2.53;;;;;;;;;;5065980;28;20200;-67
2023/08/13 12:55:44;;;;;;;2.47;2.35;;;;;;;;;;5066173;28;20204;-67
2023/08/13 12:58:10;;;;;;;4.45;2.35;;;;;;;;;;5065808;28;20196;-67
2023/08/13 13:00:37;;;;;;;2.55;2.30;;;;;;;;;;5065986;28;20201;-67
2023/08/13 13:03:03;;;;;;;3.03;2.53;;;;;;;;;;5065657;28;20476;-67
2023/08/13 13:05:29;;;;;;;2.58;2.17;;;;;;;;;;5065634;28;20208;-67
2023/08/13 13:07:57;;;;;;;4.03;2.65;;;;;;;;;;5065757;28;20436;-67
2023/08/13 13:10:24;;;;;;;4.13;2.63;;;;;;;;;;5065512;28;20216;-67
2023/08/13 13:12:50;;;;;;;3.90;2.20;;;;;;;;;;5065470;28;20224;-67
2023/08/13 13:15:16;;;;;;;2.60;2.50;;;;;;;;;;5065423;28;20503;-67
2023/08/13 13:17:42;;;;;;;2.70;2.05;;;;;;;;;;5065330;28;20373;-67
2023/08/13 13:20:11;;;;;;;5.25;2.50;;;;;;;;;;5065298;28;20200;-67
2023/08/13 13:22:37;;;;;;;3.65;2.60;;;;;;;;;;5065441;28;20508;-67
2023/08/13 13:25:05;;;;;;;3.25;2.60;;;;;;;;;;5064850;28;20201;-67
2023/08/13 13:27:31;;;;;;;2.42;2.20;;;;;;;;;;5065458;28;20216;-67
2023/08/13 13:29:58;;;;;;;2.60;2.40;;;;;;;;;;5065149;28;20216;-67
2023/08/13 13:32:24;;;;;;;1.85;1.75;;;;;;;;;;5065066;28;20381;-67
2023/08/13 13:34:51;;;;;;;2.65;2.42;;;;;;;;;;5064890;28;20196;-67
2023/08/13 13:37:17;;;;;;;6.20;2.80;;;;;;;;;;5065030;28;20219;-67
2023/08/13 13:39:44;;;;;;;1.90;1.80;;;;;;;;;;5065206;28;20211;-67
2023/08/13 13:42:12;;;;;;;2.25;2.15;;;;;;;;;;5064913;28;20223;-68
2023/08/13 13:44:38;;;;;;;2.42;2.25;;;;;;;;;;5064992;28;20263;-67
2023/08/13 13:47:04;;;;;;;2.40;2.30;;;;;;;;;;5064414;28;20511;-67
2023/08/13 13:49:31;;;;;;;2.83;2.35;;;;;;;;;;5064946;28;20217;-67
2023/08/13 13:51:58;;;;;;;2.97;2.20;;;;;;;;;;5064791;28;20201;-67
2023/08/13 13:54:24;;;;;;;2.38;2.17;;;;;;;;;;5064513;28;20260;-67
2023/08/13 13:56:50;;;;;;;2.42;2.33;;;;;;;;;;5065130;28;20203;-67
2023/08/13 13:59:18;;;;;;;2.90;1.98;;;;;;;;;;5056599;28;20193;-67
2023/08/13 14:01:46;;;;;;;2.25;1.80;;;;;;;;;;5063921;28;20271;-67
2023/08/13 14:04:12;;;;;;;2.35;2.10;;;;;;;;;;5064628;28;20201;-67
2023/08/13 14:06:39;;;;;;;5.20;2.10;;;;;;;;;;5064575;28;20201;-67
2023/08/13 14:09:05;;;;;;;2.30;2.10;;;;;;;;;;5064112;28;20220;-68
2023/08/13 14:11:31;;;;;;;3.67;2.28;;;;;;;;;;5064484;28;20500;-68
2023/08/13 14:13:58;;;;;;;3.95;2.38;;;;;;;;;;5064216;28;20208;-68
2023/08/13 14:16:25;;;;;;;2.40;2.25;;;;;;;;;;5064350;28;20196;-68
2023/08/13 14:18:52;;;;;;;2.63;2.38;;;;;;;;;;5064540;28;20201;-67
2023/08/13 14:21:19;;;;;;;4.22;2.45;;;;;;;;;;5056616;28;20358;-67
2023/08/13 14:23:45;;;;;;;2.47;2.28;;;;;;;;;;5064304;28;20423;-67
2023/08/13 14:26:11;;;;;;;2.33;1.95;;;;;;;;;;5063938;28;20207;-68
2023/08/13 14:28:38;;;;;;;2.25;1.90;;;;;;;;;;5063875;28;20216;-68
2023/08/13 14:31:04;;;;;;;2.92;2.15;;;;;;;;;;5063920;28;20208;-67
2023/08/13 14:33:32;;;;;;;1.83;1.73;;;;;;;;;;5063807;28;20204;-67
2023/08/13 14:35:58;;;;;;;2.10;1.90;;;;;;;;;;5063712;28;20207;-67
2023/08/13 14:38:24;;;;;;;2.10;1.90;;;;;;;;;;5063940;28;20299;-67